sensor_id;sensor_type;location;lat;lon;timestamp;pressure;altitude;pressure_sealevel;temperature;humidity
14966;BME280;7577;45.226;5.798;2023-07-20T00:02:00;98970.77;;;32.47;36.75
14966;BME280;7577;45.226;5.798;2023-07-20T00:04:31;98967.34;;;32.47;36.69
14966;BME280;7577;45.226;5.798;2023-07-20T00:07:01;98961.52;;;32.46;36.65
14966;BME280;7577;45.226;5.798;2023-07-20T00:09:31;98964.94;;;32.46;36.67
14966;BME280;7577;45.226;5.798;2023-07-20T00:12:01;98964.74;;;32.45;36.68
14966;BME280;7577;45.226;5.798;2023-07-20T00:14:31;98971.20;;;32.45;36.65
14966;BME280;7577;45.226;5.798;2023-07-20T00:17:02;98963.93;;;32.44;36.67
14966;BME280;7577;45.226;5.798;2023-07-20T00:19:32;98965.97;;;32.44;36.67
14966;BME280;7577;45.226;5.798;2023-07-20T00:22:05;98971.61;;;32.44;36.61
14966;BME280;7577;45.226;5.798;2023-07-20T00:24:35;98964.36;;;32.43;36.64
14966;BME280;7577;45.226;5.798;2023-07-20T00:27:07;98954.27;;;32.42;36.61
14966;BME280;7577;45.226;5.798;2023-07-20T00:32:15;98960.92;;;32.43;36.47
14966;BME280;7577;45.226;5.798;2023-07-20T00:37:23;98959.51;;;32.43;36.50
14966;BME280;7577;45.226;5.798;2023-07-20T00:39:54;98967.36;;;32.40;36.54
14966;BME280;7577;45.226;5.798;2023-07-20T00:42:26;98960.94;;;32.40;36.46
14966;BME280;7577;45.226;5.798;2023-07-20T00:44:56;98968.59;;;32.39;36.49
14966;BME280;7577;45.226;5.798;2023-07-20T00:47:26;98966.39;;;32.39;36.48
14966;BME280;7577;45.226;5.798;2023-07-20T00:52:39;98958.91;;;32.40;36.49
14966;BME280;7577;45.226;5.798;2023-07-20T00:55:10;98956.92;;;32.37;36.39
14966;BME280;7577;45.226;5.798;2023-07-20T00:57:40;98959.75;;;32.37;36.47
14966;BME280;7577;45.226;5.798;2023-07-20T01:00:12;98957.33;;;32.36;36.43
14966;BME280;7577;45.226;5.798;2023-07-20T01:02:42;98953.29;;;32.37;36.45
14966;BME280;7577;45.226;5.798;2023-07-20T01:07:55;98952.07;;;32.38;36.45
14966;BME280;7577;45.226;5.798;2023-07-20T01:10:27;98951.50;;;32.35;36.42
14966;BME280;7577;45.226;5.798;2023-07-20T01:12:57;98943.44;;;32.33;36.36
14966;BME280;7577;45.226;5.798;2023-07-20T01:18:06;98945.86;;;32.35;36.35
14966;BME280;7577;45.226;5.798;2023-07-20T01:20:37;98941.84;;;32.32;36.38
14966;BME280;7577;45.226;5.798;2023-07-20T01:23:22;98942.44;;;32.32;36.41
14966;BME280;7577;45.226;5.798;2023-07-20T01:26:01;98941.22;;;32.33;36.37
14966;BME280;7577;45.226;5.798;2023-07-20T01:28:39;98939.23;;;32.30;36.41
14966;BME280;7577;45.226;5.798;2023-07-20T01:31:22;98937.20;;;32.30;36.33
14966;BME280;7577;45.226;5.798;2023-07-20T01:33:57;98940.42;;;32.29;36.38
14966;BME280;7577;45.226;5.798;2023-07-20T01:36:29;98931.55;;;32.27;36.35
14966;BME280;7577;45.226;5.798;2023-07-20T01:39:00;98929.14;;;32.25;36.35
14966;BME280;7577;45.226;5.798;2023-07-20T01:41:31;98930.55;;;32.25;36.38
14966;BME280;7577;45.226;5.798;2023-07-20T01:46:46;98923.09;;;32.27;36.35
14966;BME280;7577;45.226;5.798;2023-07-20T01:49:16;98923.31;;;32.24;36.29
14966;BME280;7577;45.226;5.798;2023-07-20T01:51:46;98925.50;;;32.25;36.32
14966;BME280;7577;45.226;5.798;2023-07-20T01:54:15;98923.71;;;32.23;36.39
14966;BME280;7577;45.226;5.798;2023-07-20T01:56:46;98923.91;;;32.24;36.35
14966;BME280;7577;45.226;5.798;2023-07-20T01:59:17;98928.75;;;32.23;36.36
14966;BME280;7577;45.226;5.798;2023-07-20T02:01:47;98924.53;;;32.23;36.33
14966;BME280;7577;45.226;5.798;2023-07-20T02:04:17;98925.13;;;32.23;36.32
14966;BME280;7577;45.226;5.798;2023-07-20T02:06:47;98930.97;;;32.20;36.37
14966;BME280;7577;45.226;5.798;2023-07-20T02:09:17;98923.92;;;32.20;36.38
14966;BME280;7577;45.226;5.798;2023-07-20T02:11:48;98924.14;;;32.18;36.36
14966;BME280;7577;45.226;5.798;2023-07-20T02:16:56;98927.55;;;32.17;36.40
14966;BME280;7577;45.226;5.798;2023-07-20T02:19:29;98926.55;;;32.16;36.42
14966;BME280;7577;45.226;5.798;2023-07-20T02:24:37;98930.58;;;32.15;36.46
14966;BME280;7577;45.226;5.798;2023-07-20T02:27:07;98936.24;;;32.11;36.46
14966;BME280;7577;45.226;5.798;2023-07-20T02:29:38;98929.98;;;32.12;36.50
14966;BME280;7577;45.226;5.798;2023-07-20T02:34:47;98930.61;;;32.11;36.47
14966;BME280;7577;45.226;5.798;2023-07-20T02:37:17;98940.87;;;32.10;36.48
14966;BME280;7577;45.226;5.798;2023-07-20T02:39:48;98941.69;;;32.10;36.48
14966;BME280;7577;45.226;5.798;2023-07-20T02:42:18;98945.09;;;32.10;36.47
14966;BME280;7577;45.226;5.798;2023-07-20T02:44:50;98940.05;;;32.09;36.49
14966;BME280;7577;45.226;5.798;2023-07-20T02:47:20;98938.27;;;32.07;36.51
14966;BME280;7577;45.226;5.798;2023-07-20T02:49:50;98945.31;;;32.07;36.50
14966;BME280;7577;45.226;5.798;2023-07-20T02:52:20;98943.09;;;32.07;36.50
14966;BME280;7577;45.226;5.798;2023-07-20T02:54:51;98937.45;;;32.07;36.50
14966;BME280;7577;45.226;5.798;2023-07-20T02:57:21;98940.89;;;32.06;36.52
14966;BME280;7577;45.226;5.798;2023-07-20T02:59:51;98938.67;;;32.06;36.51
14966;BME280;7577;45.226;5.798;2023-07-20T03:02:22;98950.53;;;32.05;36.56
14966;BME280;7577;45.226;5.798;2023-07-20T03:04:52;98940.67;;;32.05;36.57
14966;BME280;7577;45.226;5.798;2023-07-20T03:07:22;98946.31;;;32.05;36.57
14966;BME280;7577;45.226;5.798;2023-07-20T03:09:52;98948.34;;;32.05;36.55
14966;BME280;7577;45.226;5.798;2023-07-20T03:12:24;98952.38;;;32.04;36.60
14966;BME280;7577;45.226;5.798;2023-07-20T03:14:56;98946.52;;;32.03;36.61
14966;BME280;7577;45.226;5.798;2023-07-20T03:20:06;98949.56;;;32.04;36.64
14966;BME280;7577;45.226;5.798;2023-07-20T03:22:39;98954.00;;;32.01;36.69
14966;BME280;7577;45.226;5.798;2023-07-20T03:25:10;98955.18;;;32.00;36.72
14966;BME280;7577;45.226;5.798;2023-07-20T03:27:40;98951.79;;;31.97;36.71
14966;BME280;7577;45.226;5.798;2023-07-20T03:30:11;98956.80;;;31.98;36.68
14966;BME280;7577;45.226;5.798;2023-07-20T03:32:41;98959.03;;;31.98;36.70
14966;BME280;7577;45.226;5.798;2023-07-20T03:35:11;98955.80;;;31.96;36.70
14966;BME280;7577;45.226;5.798;2023-07-20T03:37:41;98958.02;;;31.97;36.71
14966;BME280;7577;45.226;5.798;2023-07-20T03:40:12;98955.01;;;31.96;36.72
14966;BME280;7577;45.226;5.798;2023-07-20T03:42:43;98961.86;;;31.95;36.73
14966;BME280;7577;45.226;5.798;2023-07-20T03:45:14;98964.45;;;31.94;36.74
14966;BME280;7577;45.226;5.798;2023-07-20T03:47:45;98963.67;;;31.93;36.75
14966;BME280;7577;45.226;5.798;2023-07-20T03:50:17;98960.23;;;31.94;36.77
14966;BME280;7577;45.226;5.798;2023-07-20T03:52:47;98955.22;;;31.93;36.75
14966;BME280;7577;45.226;5.798;2023-07-20T03:55:17;98957.22;;;31.93;36.75
14966;BME280;7577;45.226;5.798;2023-07-20T03:57:47;98958.63;;;31.93;36.73
14966;BME280;7577;45.226;5.798;2023-07-20T04:00:19;98956.83;;;31.91;36.72
14966;BME280;7577;45.226;5.798;2023-07-20T04:02:50;98959.22;;;31.92;36.70
14966;BME280;7577;45.226;5.798;2023-07-20T04:05:20;98959.66;;;31.91;36.67
14966;BME280;7577;45.226;5.798;2023-07-20T04:10:28;98961.66;;;31.90;36.72
14966;BME280;7577;45.226;5.798;2023-07-20T04:12:58;98960.27;;;31.87;36.73
14966;BME280;7577;45.226;5.798;2023-07-20T04:15:28;98961.67;;;31.87;36.73
14966;BME280;7577;45.226;5.798;2023-07-20T04:20:36;98956.03;;;31.87;36.74
14966;BME280;7577;45.226;5.798;2023-07-20T04:23:06;98961.25;;;31.85;36.76
14966;BME280;7577;45.226;5.798;2023-07-20T04:25:37;98963.06;;;31.83;36.74
14966;BME280;7577;45.226;5.798;2023-07-20T04:28:08;98968.11;;;31.84;36.79
14966;BME280;7577;45.226;5.798;2023-07-20T04:30:40;98961.66;;;31.83;36.77
14966;BME280;7577;45.226;5.798;2023-07-20T04:35:49;98964.07;;;31.85;36.81
14966;BME280;7577;45.226;5.798;2023-07-20T04:41:04;98959.27;;;31.82;36.84
14966;BME280;7577;45.226;5.798;2023-07-20T04:43:34;98961.48;;;31.79;36.88
14966;BME280;7577;45.226;5.798;2023-07-20T04:46:04;98959.67;;;31.80;36.90
14966;BME280;7577;45.226;5.798;2023-07-20T04:48:34;98959.86;;;31.81;36.90
14966;BME280;7577;45.226;5.798;2023-07-20T04:51:05;98961.27;;;31.81;36.89
14966;BME280;7577;45.226;5.798;2023-07-20T04:53:35;98960.67;;;31.82;36.94
14966;BME280;7577;45.226;5.798;2023-07-20T04:56:05;98964.68;;;31.81;36.94
14966;BME280;7577;45.226;5.798;2023-07-20T04:58:35;98968.31;;;31.81;36.92
14966;BME280;7577;45.226;5.798;2023-07-20T05:03:45;98971.33;;;31.82;37.00
14966;BME280;7577;45.226;5.798;2023-07-20T05:06:15;98969.53;;;31.80;36.97
14966;BME280;7577;45.226;5.798;2023-07-20T05:08:46;98972.94;;;31.80;36.96
14966;BME280;7577;45.226;5.798;2023-07-20T05:11:16;98975.95;;;31.81;36.97
14966;BME280;7577;45.226;5.798;2023-07-20T05:13:46;98972.54;;;31.81;36.94
14966;BME280;7577;45.226;5.798;2023-07-20T05:16:16;98971.95;;;31.82;36.90
14966;BME280;7577;45.226;5.798;2023-07-20T05:18:46;98969.12;;;31.82;36.84
14966;BME280;7577;45.226;5.798;2023-07-20T05:23:54;98969.12;;;31.82;36.85
14966;BME280;7577;45.226;5.798;2023-07-20T05:26:23;98967.89;;;31.79;36.86
14966;BME280;7577;45.226;5.798;2023-07-20T05:28:53;98969.93;;;31.79;36.91
14966;BME280;7577;45.226;5.798;2023-07-20T05:31:23;98968.33;;;31.78;36.90
14966;BME280;7577;45.226;5.798;2023-07-20T05:33:54;98971.14;;;31.78;36.88
14966;BME280;7577;45.226;5.798;2023-07-20T05:36:25;98974.55;;;31.77;36.91
14966;BME280;7577;45.226;5.798;2023-07-20T05:38:55;98975.14;;;31.77;36.96
14966;BME280;7577;45.226;5.798;2023-07-20T05:41:25;98978.38;;;31.79;36.92
14966;BME280;7577;45.226;5.798;2023-07-20T05:46:33;98979.39;;;31.80;36.94
14966;BME280;7577;45.226;5.798;2023-07-20T05:49:03;98982.61;;;31.79;36.94
14966;BME280;7577;45.226;5.798;2023-07-20T05:51:33;98985.42;;;31.79;36.97
14966;BME280;7577;45.226;5.798;2023-07-20T05:54:04;98987.42;;;31.78;36.93
14966;BME280;7577;45.226;5.798;2023-07-20T05:59:12;98977.56;;;31.78;36.88
14966;BME280;7577;45.226;5.798;2023-07-20T06:01:43;98985.83;;;31.77;36.91
14966;BME280;7577;45.226;5.798;2023-07-20T06:04:13;98978.19;;;31.78;36.91
14966;BME280;7577;45.226;5.798;2023-07-20T06:06:43;98975.97;;;31.77;36.88
14966;BME280;7577;45.226;5.798;2023-07-20T06:09:13;98977.56;;;31.78;36.94
14966;BME280;7577;45.226;5.798;2023-07-20T06:11:43;98976.97;;;31.79;37.03
14966;BME280;7577;45.226;5.798;2023-07-20T06:14:13;98972.55;;;31.78;37.09
14966;BME280;7577;45.226;5.798;2023-07-20T06:16:44;98971.34;;;31.79;37.11
14966;BME280;7577;45.226;5.798;2023-07-20T06:19:14;98968.52;;;31.79;37.10
14966;BME280;7577;45.226;5.798;2023-07-20T06:21:45;98966.48;;;31.79;37.17
14966;BME280;7577;45.226;5.798;2023-07-20T06:24:15;98965.70;;;31.79;37.17
14966;BME280;7577;45.226;5.798;2023-07-20T06:26:45;98964.30;;;31.79;37.23
14966;BME280;7577;45.226;5.798;2023-07-20T06:29:16;98962.89;;;31.79;37.25
14966;BME280;7577;45.226;5.798;2023-07-20T06:31:46;98967.70;;;31.78;37.21
14966;BME280;7577;45.226;5.798;2023-07-20T06:34:16;98962.69;;;31.78;37.25
14966;BME280;7577;45.226;5.798;2023-07-20T06:36:46;98966.71;;;31.80;37.23
14966;BME280;7577;45.226;5.798;2023-07-20T06:39:16;98961.08;;;31.80;37.23
14966;BME280;7577;45.226;5.798;2023-07-20T06:44:24;98953.41;;;31.81;37.22
14966;BME280;7577;45.226;5.798;2023-07-20T06:46:54;98955.22;;;31.79;37.23
14966;BME280;7577;45.226;5.798;2023-07-20T06:49:28;98954.63;;;31.80;37.17
14966;BME280;7577;45.226;5.798;2023-07-20T06:51:58;98951.80;;;31.80;37.15
14966;BME280;7577;45.226;5.798;2023-07-20T06:54:28;98950.20;;;31.79;37.08
14966;BME280;7577;45.226;5.798;2023-07-20T06:56:58;98950.20;;;31.79;37.12
14966;BME280;7577;45.226;5.798;2023-07-20T06:59:28;98950.20;;;31.79;37.13
14966;BME280;7577;45.226;5.798;2023-07-20T07:04:36;98947.58;;;31.80;37.17
14966;BME280;7577;45.226;5.798;2023-07-20T07:09:43;98942.14;;;31.81;37.18
14966;BME280;7577;45.226;5.798;2023-07-20T07:12:13;98946.77;;;31.79;37.22
14966;BME280;7577;45.226;5.798;2023-07-20T07:14:43;98943.95;;;31.79;37.19
14966;BME280;7577;45.226;5.798;2023-07-20T07:17:13;98939.53;;;31.78;37.21
14966;BME280;7577;45.226;5.798;2023-07-20T07:22:21;98934.91;;;31.80;37.20
14966;BME280;7577;45.226;5.798;2023-07-20T07:24:52;98932.30;;;31.77;37.20
14966;BME280;7577;45.226;5.798;2023-07-20T07:27:22;98940.34;;;31.79;37.14
14966;BME280;7577;45.226;5.798;2023-07-20T07:29:52;98938.75;;;31.78;37.17
14966;BME280;7577;45.226;5.798;2023-07-20T07:32:23;98937.34;;;31.78;37.17
14966;BME280;7577;45.226;5.798;2023-07-20T07:34:54;98931.70;;;31.78;37.17
14966;BME280;7577;45.226;5.798;2023-07-20T07:37:24;98936.52;;;31.77;37.17
14966;BME280;7577;45.226;5.798;2023-07-20T07:39:54;98931.28;;;31.76;37.18
14966;BME280;7577;45.226;5.798;2023-07-20T07:42:25;98931.28;;;31.76;37.14
14966;BME280;7577;45.226;5.798;2023-07-20T07:44:55;98933.70;;;31.77;37.13
14966;BME280;7577;45.226;5.798;2023-07-20T07:47:27;98932.89;;;31.77;37.13
14966;BME280;7577;45.226;5.798;2023-07-20T07:49:56;98928.07;;;31.77;37.11
14966;BME280;7577;45.226;5.798;2023-07-20T07:52:26;98932.30;;;31.77;37.05
14966;BME280;7577;45.226;5.798;2023-07-20T07:54:56;98923.84;;;31.77;37.03
14966;BME280;7577;45.226;5.798;2023-07-20T07:57:26;98923.25;;;31.78;37.01
14966;BME280;7577;45.226;5.798;2023-07-20T07:59:56;98918.61;;;31.76;37.04
14966;BME280;7577;45.226;5.798;2023-07-20T08:02:26;98915.79;;;31.76;37.02
14966;BME280;7577;45.226;5.798;2023-07-20T08:07:35;98920.63;;;31.79;36.92
14966;BME280;7577;45.226;5.798;2023-07-20T08:10:11;98915.79;;;31.76;36.98
14966;BME280;7577;45.226;5.798;2023-07-20T08:12:41;98914.80;;;31.78;36.98
14966;BME280;7577;45.226;5.798;2023-07-20T08:15:13;98921.62;;;31.77;36.98
14966;BME280;7577;45.226;5.798;2023-07-20T08:17:43;98911.76;;;31.77;36.97
14966;BME280;7577;45.226;5.798;2023-07-20T08:20:15;98908.53;;;31.78;36.95
14966;BME280;7577;45.226;5.798;2023-07-20T08:22:46;98913.39;;;31.78;36.96
14966;BME280;7577;45.226;5.798;2023-07-20T08:27:53;98903.91;;;31.80;36.95
14966;BME280;7577;45.226;5.798;2023-07-20T08:33:01;98898.08;;;31.79;36.95
14966;BME280;7577;45.226;5.798;2023-07-20T08:35:32;98897.08;;;31.77;36.95
14966;BME280;7577;45.226;5.798;2023-07-20T08:38:02;98889.22;;;31.77;36.98
14966;BME280;7577;45.226;5.798;2023-07-20T08:40:33;98887.81;;;31.77;37.02
14966;BME280;7577;45.226;5.798;2023-07-20T08:43:04;98881.98;;;31.76;37.01
14966;BME280;7577;45.226;5.798;2023-07-20T08:45:35;98882.17;;;31.77;37.00
14966;BME280;7577;45.226;5.798;2023-07-20T08:48:06;98877.16;;;31.76;37.05
14966;BME280;7577;45.226;5.798;2023-07-20T08:50:37;98882.98;;;31.77;37.04
14966;BME280;7577;45.226;5.798;2023-07-20T08:53:08;98875.13;;;31.77;36.99
14966;BME280;7577;45.226;5.798;2023-07-20T08:55:40;98871.72;;;31.77;37.01
14966;BME280;7577;45.226;5.798;2023-07-20T08:58:13;98874.54;;;31.77;37.06
14966;BME280;7577;45.226;5.798;2023-07-20T09:00:45;98866.68;;;31.77;37.05
14966;BME280;7577;45.226;5.798;2023-07-20T09:03:18;98862.27;;;31.76;37.00
14966;BME280;7577;45.226;5.798;2023-07-20T09:05:48;98859.64;;;31.77;37.01
14966;BME280;7577;45.226;5.798;2023-07-20T09:08:19;98860.45;;;31.77;37.04
14966;BME280;7577;45.226;5.798;2023-07-20T09:10:48;98857.64;;;31.77;37.06
14966;BME280;7577;45.226;5.798;2023-07-20T09:13:18;98852.59;;;31.77;37.08
14966;BME280;7577;45.226;5.798;2023-07-20T09:18:27;98839.11;;;31.80;37.02
14966;BME280;7577;45.226;5.798;2023-07-20T09:21:01;98847.18;;;31.78;37.06
14966;BME280;7577;45.226;5.798;2023-07-20T09:26:14;98839.30;;;31.81;37.03
14966;BME280;7577;45.226;5.798;2023-07-20T09:28:48;98839.70;;;31.79;37.05
14966;BME280;7577;45.226;5.798;2023-07-20T09:31:20;98837.70;;;31.80;36.97
14966;BME280;7577;45.226;5.798;2023-07-20T09:33:52;98838.52;;;31.80;36.96
14966;BME280;7577;45.226;5.798;2023-07-20T09:36:24;98832.88;;;31.80;36.97
14966;BME280;7577;45.226;5.798;2023-07-20T09:38:55;98830.06;;;31.80;36.89
14966;BME280;7577;45.226;5.798;2023-07-20T09:41:25;98833.47;;;31.80;36.92
14966;BME280;7577;45.226;5.798;2023-07-20T09:43:55;98828.66;;;31.80;36.90
14966;BME280;7577;45.226;5.798;2023-07-20T09:46:25;98822.20;;;31.80;36.96
14966;BME280;7577;45.226;5.798;2023-07-20T09:48:57;98826.43;;;31.80;36.97
14966;BME280;7577;45.226;5.798;2023-07-20T09:51:28;98820.98;;;31.81;37.00
14966;BME280;7577;45.226;5.798;2023-07-20T09:53:59;98820.20;;;31.80;36.92
14966;BME280;7577;45.226;5.798;2023-07-20T09:56:31;98814.57;;;31.80;36.94
14966;BME280;7577;45.226;5.798;2023-07-20T09:59:03;98806.30;;;31.81;36.88
14966;BME280;7577;45.226;5.798;2023-07-20T10:01:34;98808.53;;;31.82;36.88
14966;BME280;7577;45.226;5.798;2023-07-20T10:04:05;98802.67;;;31.81;36.87
14966;BME280;7577;45.226;5.798;2023-07-20T10:09:16;98795.23;;;31.82;36.91
14966;BME280;7577;45.226;5.798;2023-07-20T10:14:28;98790.00;;;31.84;36.88
14966;BME280;7577;45.226;5.798;2023-07-20T10:19:42;98782.34;;;31.85;36.88
14966;BME280;7577;45.226;5.798;2023-07-20T10:22:17;98779.73;;;31.82;36.87
14966;BME280;7577;45.226;5.798;2023-07-20T10:24:47;98778.33;;;31.82;36.88
14966;BME280;7577;45.226;5.798;2023-07-20T10:27:18;98776.51;;;31.84;36.89
14966;BME280;7577;45.226;5.798;2023-07-20T10:29:50;98773.69;;;31.84;36.85
14966;BME280;7577;45.226;5.798;2023-07-20T10:32:21;98768.66;;;31.83;36.80
14966;BME280;7577;45.226;5.798;2023-07-20T10:34:52;98766.65;;;31.84;36.75
14966;BME280;7577;45.226;5.798;2023-07-20T10:37:51;98764.42;;;31.83;36.78
14966;BME280;7577;45.226;5.798;2023-07-20T10:40:38;98758.38;;;31.85;36.83
14966;BME280;7577;45.226;5.798;2023-07-20T10:43:07;98756.20;;;31.84;36.82
14966;BME280;7577;45.226;5.798;2023-07-20T10:45:42;98753.97;;;31.84;36.83
14966;BME280;7577;45.226;5.798;2023-07-20T10:48:18;98761.20;;;31.85;36.81
14966;BME280;7577;45.226;5.798;2023-07-20T10:51:10;98756.20;;;31.84;36.82
14966;BME280;7577;45.226;5.798;2023-07-20T10:53:42;98750.56;;;31.84;36.84
14966;BME280;7577;45.226;5.798;2023-07-20T10:56:14;98757.79;;;31.85;36.86
14966;BME280;7577;45.226;5.798;2023-07-20T10:58:44;98742.30;;;31.85;36.85
14966;BME280;7577;45.226;5.798;2023-07-20T11:01:16;98740.48;;;31.87;36.83
14966;BME280;7577;45.226;5.798;2023-07-20T11:03:50;98736.84;;;31.86;36.78
14966;BME280;7577;45.226;5.798;2023-07-20T11:09:14;98725.77;;;31.87;36.87
14966;BME280;7577;45.226;5.798;2023-07-20T11:11:46;98728.39;;;31.86;36.86
14966;BME280;7577;45.226;5.798;2023-07-20T11:14:23;98727.17;;;31.87;36.83
14966;BME280;7577;45.226;5.798;2023-07-20T11:16:54;98719.53;;;31.88;36.85
14966;BME280;7577;45.226;5.798;2023-07-20T11:19:25;98713.31;;;31.88;36.85
14966;BME280;7577;45.226;5.798;2023-07-20T11:21:56;98719.31;;;31.90;36.85
14966;BME280;7577;45.226;5.798;2023-07-20T11:24:27;98715.69;;;31.90;36.86
14966;BME280;7577;45.226;5.798;2023-07-20T11:29:37;98706.61;;;31.94;36.89
14966;BME280;7577;45.226;5.798;2023-07-20T11:34:48;98704.20;;;31.96;36.89
14966;BME280;7577;45.226;5.798;2023-07-20T11:37:19;98695.15;;;31.93;36.90
14966;BME280;7577;45.226;5.798;2023-07-20T11:39:49;98692.73;;;31.95;36.81
14966;BME280;7577;45.226;5.798;2023-07-20T11:42:21;98697.75;;;31.95;36.86
14966;BME280;7577;45.226;5.798;2023-07-20T11:44:53;98696.15;;;31.94;36.87
14966;BME280;7577;45.226;5.798;2023-07-20T11:50:09;98684.66;;;31.97;36.91
14966;BME280;7577;45.226;5.798;2023-07-20T11:55:18;98681.63;;;31.99;36.88
14966;BME280;7577;45.226;5.798;2023-07-20T11:58:03;98674.80;;;31.97;36.85
14966;BME280;7577;45.226;5.798;2023-07-20T12:00:34;98677.98;;;31.99;36.87
14966;BME280;7577;45.226;5.798;2023-07-20T12:03:06;98670.57;;;31.97;36.89
14966;BME280;7577;45.226;5.798;2023-07-20T12:05:37;98662.70;;;32.00;36.87
14966;BME280;7577;45.226;5.798;2023-07-20T12:08:08;98661.30;;;32.00;36.89
14966;BME280;7577;45.226;5.798;2023-07-20T12:10:40;98665.71;;;32.01;36.84
14966;BME280;7577;45.226;5.798;2023-07-20T12:13:12;98662.89;;;32.01;36.87
14966;BME280;7577;45.226;5.798;2023-07-20T12:15:43;98658.26;;;32.02;36.89
14966;BME280;7577;45.226;5.798;2023-07-20T12:20:58;98654.81;;;32.03;36.93
14966;BME280;7577;45.226;5.798;2023-07-20T12:23:23;98652.00;;;32.03;36.95
14966;BME280;7577;45.226;5.798;2023-07-20T12:25:54;98647.77;;;32.03;36.95
14966;BME280;7577;45.226;5.798;2023-07-20T12:28:25;98646.36;;;32.03;36.95
14966;BME280;7577;45.226;5.798;2023-07-20T12:30:56;98647.98;;;32.04;36.96
14966;BME280;7577;45.226;5.798;2023-07-20T12:33:26;98641.12;;;32.05;36.95
14966;BME280;7577;45.226;5.798;2023-07-20T12:35:55;98639.91;;;32.06;36.96
14966;BME280;7577;45.226;5.798;2023-07-20T12:38:27;98634.67;;;32.04;36.96
14966;BME280;7577;45.226;5.798;2023-07-20T12:43:38;98630.45;;;32.08;36.98
14966;BME280;7577;45.226;5.798;2023-07-20T12:48:49;98615.73;;;32.08;36.96
14966;BME280;7577;45.226;5.798;2023-07-20T12:53:57;98612.09;;;32.11;36.95
14966;BME280;7577;45.226;5.798;2023-07-20T12:56:27;98612.31;;;32.09;36.95
14966;BME280;7577;45.226;5.798;2023-07-20T12:58:57;98610.67;;;32.11;36.95
14966;BME280;7577;45.226;5.798;2023-07-20T13:01:27;98608.05;;;32.12;36.97
14966;BME280;7577;45.226;5.798;2023-07-20T13:03:57;98608.86;;;32.13;37.12
14966;BME280;7577;45.226;5.798;2023-07-20T13:06:27;98604.81;;;32.14;37.12
14966;BME280;7577;45.226;5.798;2023-07-20T13:08:58;98600.77;;;32.15;37.08
14966;BME280;7577;45.226;5.798;2023-07-20T13:11:28;98597.55;;;32.16;37.07
14966;BME280;7577;45.226;5.798;2023-07-20T13:13:58;98586.45;;;32.17;37.11
14966;BME280;7577;45.226;5.798;2023-07-20T13:16:28;98585.45;;;32.19;37.21
14966;BME280;7577;45.226;5.798;2023-07-20T13:18:58;98594.88;;;32.21;37.19
14966;BME280;7577;45.226;5.798;2023-07-20T13:21:28;98583.00;;;32.21;37.20
14966;BME280;7577;45.226;5.798;2023-07-20T13:23:58;98576.34;;;32.23;37.18
14966;BME280;7577;45.226;5.798;2023-07-20T13:26:28;98570.27;;;32.25;37.22
14966;BME280;7577;45.226;5.798;2023-07-20T13:28:58;98568.63;;;32.27;37.21
14966;BME280;7577;45.226;5.798;2023-07-20T13:34:06;98566.20;;;32.33;37.26
14966;BME280;7577;45.226;5.798;2023-07-20T13:36:36;98556.95;;;32.32;37.19
14966;BME280;7577;45.226;5.798;2023-07-20T13:39:06;98563.56;;;32.34;37.22
14966;BME280;7577;45.226;5.798;2023-07-20T13:41:37;98558.69;;;32.38;37.18
14966;BME280;7577;45.226;5.798;2023-07-20T13:44:07;98544.59;;;32.38;37.20
14966;BME280;7577;45.226;5.798;2023-07-20T13:49:15;98530.25;;;32.44;37.13
14966;BME280;7577;45.226;5.798;2023-07-20T13:51:45;98528.84;;;32.44;37.08
14966;BME280;7577;45.226;5.798;2023-07-20T13:54:16;98534.06;;;32.45;37.14
14966;BME280;7577;45.226;5.798;2023-07-20T13:56:46;98529.39;;;32.47;37.03
14966;BME280;7577;45.226;5.798;2023-07-20T13:59:15;98526.97;;;32.49;37.03
14966;BME280;7577;45.226;5.798;2023-07-20T14:01:45;98530.55;;;32.53;36.98
14966;BME280;7577;45.226;5.798;2023-07-20T14:04:16;98525.27;;;32.55;36.95
14966;BME280;7577;45.226;5.798;2023-07-20T14:06:46;98520.63;;;32.56;36.84
14966;BME280;7577;45.226;5.798;2023-07-20T14:09:16;98511.75;;;32.58;36.86
14966;BME280;7577;45.226;5.798;2023-07-20T14:11:46;98505.88;;;32.60;36.82
14966;BME280;7577;45.226;5.798;2023-07-20T14:14:16;98497.00;;;32.62;36.77
14966;BME280;7577;45.226;5.798;2023-07-20T14:16:46;98495.77;;;32.63;36.76
14966;BME280;7577;45.226;5.798;2023-07-20T14:19:18;98492.71;;;32.65;36.73
14966;BME280;7577;45.226;5.798;2023-07-20T14:24:25;98499.27;;;32.74;36.64
14966;BME280;7577;45.226;5.798;2023-07-20T14:26:55;98500.47;;;32.73;36.68
14966;BME280;7577;45.226;5.798;2023-07-20T14:29:25;98494.59;;;32.75;36.61
14966;BME280;7577;45.226;5.798;2023-07-20T14:31:55;98495.80;;;32.78;36.53
14966;BME280;7577;45.226;5.798;2023-07-20T14:34:25;98490.55;;;32.80;36.61
14966;BME280;7577;45.226;5.798;2023-07-20T14:36:55;98503.19;;;32.83;36.50
14966;BME280;7577;45.226;5.798;2023-07-20T14:39:25;98498.55;;;32.85;36.56
14966;BME280;7577;45.226;5.798;2023-07-20T14:41:55;98501.31;;;32.88;36.53
14966;BME280;7577;45.226;5.798;2023-07-20T14:44:25;98484.14;;;32.91;36.44
14966;BME280;7577;45.226;5.798;2023-07-20T14:46:55;98478.89;;;32.93;36.50
14966;BME280;7577;45.226;5.798;2023-07-20T14:49:26;98477.06;;;32.94;36.45
14966;BME280;7577;45.226;5.798;2023-07-20T14:51:56;98486.06;;;32.97;36.42
14966;BME280;7577;45.226;5.798;2023-07-20T14:54:27;98478.80;;;33.00;36.32
14966;BME280;7577;45.226;5.798;2023-07-20T14:59:35;98472.44;;;33.07;36.36
14966;BME280;7577;45.226;5.798;2023-07-20T15:02:06;98480.91;;;33.07;36.37
14966;BME280;7577;45.226;5.798;2023-07-20T15:04:36;98483.31;;;33.09;36.36
14966;BME280;7577;45.226;5.798;2023-07-20T15:07:06;98476.61;;;33.11;36.32
14966;BME280;7577;45.226;5.798;2023-07-20T15:09:36;98476.19;;;33.12;36.30
14966;BME280;7577;45.226;5.798;2023-07-20T15:12:09;98472.95;;;33.14;36.19
14966;BME280;7577;45.226;5.798;2023-07-20T15:14:41;98475.11;;;33.18;36.20
14966;BME280;7577;45.226;5.798;2023-07-20T15:19:49;98471.56;;;33.25;36.15
14966;BME280;7577;45.226;5.798;2023-07-20T15:22:19;98470.93;;;33.26;36.10
14966;BME280;7577;45.226;5.798;2023-07-20T15:24:50;98466.66;;;33.29;36.06
14966;BME280;7577;45.226;5.798;2023-07-20T15:27:20;98453.74;;;33.32;36.02